Rochester, Massachusetts
Current Conditions -  °F | °C
As of 10:53 AM on Saturday 25 Oct 2014 (Local Time) from KEWB Reporting Station
Clear Clear  
Wind Chill: 58°   Ceiling: Unl
Heat Index: 58°   Visibility: 10mi
Dew Point: 43°   Wind: 10mph
Humidity: 58%   Direction: 260°W
Pressure: 29.74"   Gusts: NA
Location:  41.73°N, 70.82°W
Report Text: KEWB 251453Z 26009KT 10SM CLR 14/06 A2974 RMK AO2 SLP069 T01440061 58015
Loading
Personal Weather Stations






























Interactive Weather Map
Tropical Storm Tracking
New forecast layout! Learn more

10-Day Weather Forecast

Advertisements
Track Severe Weather on mobile